createdAt,value
2017-02-01T00:00:06.090Z,0.26
2017-02-01T00:01:16.276Z,0.17
2017-02-01T00:02:25.316Z,0.11
2017-02-01T00:03:34.740Z,0.15
2017-02-01T00:04:44.544Z,0
2017-02-01T00:05:53.967Z,-0.03
2017-02-01T00:07:02.623Z,-0.08
2017-02-01T00:08:12.427Z,-0.05
2017-02-01T00:09:22.232Z,-0.05
2017-02-01T00:10:30.887Z,-0.1
2017-02-01T00:11:40.332Z,-0.03
2017-02-01T00:12:49.403Z,-0.07
2017-02-01T00:13:58.444Z,-0.04
2017-02-01T00:15:08.635Z,-0.01
2017-02-01T00:16:17.296Z,-0.05
2017-02-01T00:17:26.734Z,-0.07
2017-02-01T00:18:36.155Z,-0.07
2017-02-01T00:19:45.200Z,-0.07
2017-02-01T00:20:54.245Z,-0.07
2017-02-01T00:22:03.665Z,-0.26
2017-02-01T00:23:13.863Z,-0.18
2017-02-01T00:24:23.279Z,-0.26
2017-02-01T00:25:32.313Z,-0.29
2017-02-01T00:26:42.116Z,-0.46
2017-02-01T00:27:51.157Z,-0.54
2017-02-01T00:29:00.959Z,-0.58
2017-02-01T00:30:10.376Z,-0.64
2017-02-01T00:31:20.180Z,-0.67
2017-02-01T00:32:29.610Z,-0.6
2017-02-01T00:33:39.416Z,-0.57
2017-02-01T00:34:49.244Z,-0.69
2017-02-01T00:35:58.675Z,-0.7
2017-02-01T00:37:07.719Z,-0.82
2017-02-01T00:38:16.755Z,-0.82
2017-02-01T00:39:26.939Z,-0.89
2017-02-01T00:40:37.130Z,-0.98
2017-02-01T00:41:46.550Z,-0.85
2017-02-01T00:42:56.731Z,-0.86
2017-02-01T00:44:06.918Z,-0.83
2017-02-01T00:45:16.725Z,-0.79
2017-02-01T00:46:26.527Z,-0.94
2017-02-01T00:47:35.574Z,-0.86
2017-02-01T00:48:45.758Z,-0.86
2017-02-01T00:49:55.180Z,-0.82
2017-02-01T00:51:05.416Z,-0.76
2017-02-01T00:52:15.218Z,-0.75
2017-02-01T00:53:24.256Z,-0.6
2017-02-01T00:54:33.295Z,-0.39
2017-02-01T00:55:43.099Z,-0.21
2017-02-01T00:56:52.520Z,-0.05
2017-02-01T00:58:01.559Z,0.1
2017-02-01T00:59:10.979Z,0.24
2017-02-01T01:00:20.021Z,0.46
2017-02-01T01:01:29.821Z,0.53
2017-02-01T01:02:39.243Z,0.76
2017-02-01T01:03:48.664Z,0.83
2017-02-01T01:04:57.706Z,0.97
2017-02-01T01:06:06.750Z,1.06
2017-02-01T01:07:15.408Z,1.06
2017-02-01T01:08:24.472Z,1.15
2017-02-01T01:09:34.282Z,1.15
2017-02-01T01:10:43.703Z,1.14
2017-02-01T01:11:53.507Z,1.22
2017-02-01T01:13:03.319Z,1.26
2017-02-01T01:14:13.503Z,1.27
2017-02-01T01:15:23.304Z,1.32
2017-02-01T01:16:33.145Z,1.37
2017-02-01T01:17:43.716Z,1.36
2017-02-01T01:18:53.514Z,1.44
2017-02-01T01:20:02.968Z,1.48
2017-02-01T01:21:12.009Z,1.55
2017-02-01T01:22:21.432Z,1.54
2017-02-01T01:23:30.467Z,1.59
2017-02-01T01:24:39.889Z,1.62
2017-02-01T01:25:49.697Z,1.66
2017-02-01T01:26:59.119Z,1.65
2017-02-01T01:28:08.926Z,1.69
2017-02-01T01:29:18.345Z,1.69
2017-02-01T01:30:28.180Z,1.66
2017-02-01T01:31:37.599Z,1.8
2017-02-01T01:32:47.022Z,1.77
2017-02-01T01:33:56.443Z,1.83
2017-02-01T01:35:06.255Z,1.9
2017-02-01T01:36:15.675Z,1.87
2017-02-01T01:37:24.716Z,1.91
2017-02-01T01:38:33.753Z,1.87
2017-02-01T01:39:43.557Z,1.88
2017-02-01T01:40:53.363Z,1.86
2017-02-01T01:42:02.425Z,1.93
2017-02-01T01:43:11.468Z,2.03
2017-02-01T01:44:21.268Z,2.02
2017-02-01T01:45:31.070Z,1.91
2017-02-01T01:46:40.103Z,1.88
2017-02-01T01:47:49.910Z,1.9
2017-02-01T01:48:58.593Z,1.86
2017-02-01T01:50:08.041Z,1.91
2017-02-01T01:51:17.079Z,2.02
2017-02-01T01:52:26.498Z,1.93
2017-02-01T01:53:35.532Z,1.9
2017-02-01T01:54:44.191Z,1.95
2017-02-01T01:55:53.259Z,1.83
2017-02-01T01:57:02.678Z,1.88
2017-02-01T01:58:11.716Z,2
2017-02-01T01:59:21.141Z,1.95
2017-02-01T02:00:30.565Z,2.06
2017-02-01T02:01:40.375Z,2.1
2017-02-01T02:02:50.183Z,2.18
2017-02-01T02:03:59.604Z,2.16
2017-02-01T02:05:08.648Z,2.24
2017-02-01T02:06:18.067Z,2.2
2017-02-01T02:07:27.501Z,2.23
2017-02-01T02:08:37.306Z,2.28
2017-02-01T02:09:45.967Z,2.21
2017-02-01T02:10:55.389Z,2.23
2017-02-01T02:12:04.814Z,2.18
2017-02-01T02:13:13.854Z,2.31
2017-02-01T02:14:24.039Z,2.24
2017-02-01T02:15:33.466Z,2.28
2017-02-01T02:16:42.876Z,2.31
2017-02-01T02:17:52.296Z,2.34
2017-02-01T02:19:01.721Z,2.41
2017-02-01T02:20:11.533Z,2.38
2017-02-01T02:21:20.568Z,2.34
2017-02-01T02:22:29.988Z,2.21
2017-02-01T02:23:39.026Z,2.25
2017-02-01T02:24:48.062Z,2.24
2017-02-01T02:25:57.488Z,2.28
2017-02-01T02:27:07.292Z,2.25
2017-02-01T02:28:17.471Z,2.3
2017-02-01T02:29:26.889Z,2.23
2017-02-01T02:30:35.935Z,2.39
2017-02-01T02:31:44.975Z,2.21
2017-02-01T02:32:54.017Z,2.28
2017-02-01T02:34:03.828Z,2.27
2017-02-01T02:35:13.247Z,2.28
2017-02-01T02:36:22.701Z,2.25
2017-02-01T02:37:32.124Z,2.23
2017-02-01T02:38:41.934Z,2.21
2017-02-01T02:39:50.968Z,2.2
2017-02-01T02:41:00.390Z,2.24
2017-02-01T02:42:10.197Z,2.24
2017-02-01T02:43:18.850Z,2.17
2017-02-01T02:44:28.270Z,2.07
2017-02-01T02:45:37.691Z,2.05
2017-02-01T02:46:47.881Z,2.03
2017-02-01T02:47:57.692Z,2.06
2017-02-01T02:49:07.494Z,2.03
2017-02-01T02:50:16.533Z,2.07
2017-02-01T02:51:25.573Z,2.05
2017-02-01T02:52:34.999Z,2.05
2017-02-01T02:53:45.187Z,2.05
2017-02-01T02:54:54.620Z,2
2017-02-01T02:56:04.417Z,2.07
2017-02-01T02:57:14.220Z,2.14
2017-02-01T02:58:23.639Z,2.1
2017-02-01T02:59:33.055Z,2.02
2017-02-01T03:00:42.858Z,2.17
2017-02-01T03:01:52.668Z,2.12
2017-02-01T03:03:01.339Z,2.06
2017-02-01T03:04:09.991Z,2.05
2017-02-01T03:05:19.443Z,2.06
2017-02-01T03:06:28.867Z,2.03
2017-02-01T03:07:38.668Z,2.03
2017-02-01T03:08:48.852Z,2.09
2017-02-01T03:09:58.654Z,2.17
2017-02-01T03:11:08.457Z,2.17
2017-02-01T03:12:17.880Z,2.14
2017-02-01T03:13:27.296Z,2.18
2017-02-01T03:14:36.714Z,2.12
2017-02-01T03:15:45.758Z,2.16
2017-02-01T03:16:55.945Z,2.12
2017-02-01T03:18:05.367Z,2.09
2017-02-01T03:19:14.405Z,2.03
2017-02-01T03:20:23.443Z,1.9
2017-02-01T03:21:33.258Z,1.88
2017-02-01T03:22:43.061Z,1.8
2017-02-01T03:23:52.481Z,2
2017-02-01T03:25:01.529Z,1.88
2017-02-01T03:26:10.942Z,1.81
2017-02-01T03:27:20.745Z,1.84
2017-02-01T03:28:29.780Z,1.88
2017-02-01T03:29:39.581Z,1.91
2017-02-01T03:30:48.626Z,1.86
2017-02-01T03:31:57.291Z,1.8
2017-02-01T03:33:07.096Z,1.7
2017-02-01T03:34:16.128Z,1.7
2017-02-01T03:35:25.930Z,1.59
2017-02-01T03:36:36.117Z,1.69
2017-02-01T03:37:45.187Z,1.58
2017-02-01T03:38:54.238Z,1.59
2017-02-01T03:40:04.044Z,1.48
2017-02-01T03:41:13.851Z,1.42
2017-02-01T03:42:22.897Z,1.36
2017-02-01T03:43:32.703Z,1.2
2017-02-01T03:44:42.515Z,1.06
2017-02-01T03:45:51.935Z,0.9
2017-02-01T03:47:01.740Z,0.9
2017-02-01T03:48:11.159Z,0.75
2017-02-01T03:49:20.578Z,0.58
2017-02-01T03:50:30.000Z,0.41
2017-02-01T03:51:39.420Z,0.33
2017-02-01T03:52:49.609Z,0.29
2017-02-01T03:53:58.647Z,0.14
2017-02-01T03:55:08.449Z,0.11
2017-02-01T03:56:18.250Z,0.17
2017-02-01T03:57:28.057Z,0.13
2017-02-01T03:58:38.244Z,0.2
2017-02-01T03:59:48.046Z,0.13
2017-02-01T04:00:57.234Z,0.11
2017-02-01T04:02:06.658Z,0
2017-02-01T04:03:16.460Z,-0.01
2017-02-01T04:04:26.656Z,-0.08
2017-02-01T04:05:36.079Z,-0.1
2017-02-01T04:06:45.496Z,-0.21
2017-02-01T04:07:54.534Z,-0.23
2017-02-01T04:09:03.956Z,-0.19
2017-02-01T04:10:14.145Z,-0.26
2017-02-01T04:11:23.568Z,-0.16
2017-02-01T04:12:32.983Z,-0.23
2017-02-01T04:13:42.020Z,-0.25
2017-02-01T04:14:51.823Z,-0.34
2017-02-01T04:16:01.240Z,-0.18
2017-02-01T04:17:10.666Z,-0.22
2017-02-01T04:18:19.700Z,-0.22
2017-02-01T04:19:29.117Z,-0.21
2017-02-01T04:20:37.772Z,-0.18
2017-02-01T04:21:47.571Z,-0.23
2017-02-01T04:22:56.245Z,-0.23
2017-02-01T04:24:05.290Z,-0.31
2017-02-01T04:25:14.344Z,-0.29
2017-02-01T04:26:23.381Z,-0.33
2017-02-01T04:27:32.804Z,-0.33
2017-02-01T04:28:42.226Z,-0.42
2017-02-01T04:29:52.036Z,-0.49
2017-02-01T04:31:01.832Z,-0.49
2017-02-01T04:32:11.635Z,-0.64
2017-02-01T04:33:20.672Z,-0.64
2017-02-01T04:34:29.329Z,-0.57
2017-02-01T04:35:38.749Z,-0.64
2017-02-01T04:36:48.559Z,-0.52
2017-02-01T04:37:58.369Z,-0.52
2017-02-01T04:39:07.790Z,-0.51
2017-02-01T04:40:16.464Z,-0.52
2017-02-01T04:41:25.499Z,-0.49
2017-02-01T04:42:34.535Z,-0.51
2017-02-01T04:43:43.959Z,-0.54
2017-02-01T04:44:53.763Z,-0.52
2017-02-01T04:46:02.800Z,-0.46
2017-02-01T04:47:12.216Z,-0.67
2017-02-01T04:48:22.018Z,-0.65
2017-02-01T04:49:31.056Z,-0.64
2017-02-01T04:50:41.238Z,-0.64
2017-02-01T04:51:49.895Z,-0.57
2017-02-01T04:52:59.695Z,-0.52
2017-02-01T04:54:09.119Z,-0.6
2017-02-01T04:55:19.304Z,-0.64
2017-02-01T04:56:28.339Z,-0.7
2017-02-01T04:57:37.774Z,-0.7
2017-02-01T04:58:46.813Z,-0.75
2017-02-01T04:59:56.619Z,-0.73
2017-02-01T05:01:05.657Z,-0.78
2017-02-01T05:02:15.082Z,-0.67
2017-02-01T05:03:24.116Z,-0.67
2017-02-01T05:04:33.542Z,-0.75
2017-02-01T05:05:43.726Z,-0.8
2017-02-01T05:06:52.761Z,-0.79
2017-02-01T05:08:01.800Z,-0.86
2017-02-01T05:09:11.230Z,-0.75
2017-02-01T05:10:21.031Z,-0.82
2017-02-01T05:11:31.212Z,-0.89
2017-02-01T05:12:40.640Z,-0.82
2017-02-01T05:13:49.679Z,-0.91
2017-02-01T05:14:59.102Z,-0.91
2017-02-01T05:16:08.908Z,-1.04
2017-02-01T05:17:18.706Z,-0.92
2017-02-01T05:18:27.754Z,-0.91
2017-02-01T05:19:36.791Z,-1.02
2017-02-01T05:20:45.825Z,-1.07
2017-02-01T05:21:54.866Z,-1.09
2017-02-01T05:23:05.046Z,-1.04
2017-02-01T05:24:15.236Z,-0.97
2017-02-01T05:25:24.299Z,-1.02
2017-02-01T05:26:33.331Z,-0.97
2017-02-01T05:27:42.751Z,-1.04
2017-02-01T05:28:52.166Z,-0.89
2017-02-01T05:30:00.824Z,-0.82
2017-02-01T05:31:09.865Z,-0.89
2017-02-01T05:32:18.908Z,-0.83
2017-02-01T05:33:28.709Z,-0.85
2017-02-01T05:34:38.506Z,-0.8
2017-02-01T05:35:47.539Z,-0.8
2017-02-01T05:36:56.639Z,-0.92
2017-02-01T05:38:06.440Z,-0.91
2017-02-01T05:39:15.861Z,-0.95
2017-02-01T05:40:24.947Z,-0.94
2017-02-01T05:41:34.755Z,-0.99
2017-02-01T05:42:44.177Z,-1.05
2017-02-01T05:43:53.596Z,-1.07
2017-02-01T05:45:03.397Z,-0.97
2017-02-01T05:46:12.436Z,-0.94
2017-02-01T05:47:21.860Z,-1.05
2017-02-01T05:48:31.659Z,-0.99
2017-02-01T05:49:41.463Z,-1.12
2017-02-01T05:50:50.503Z,-1.09
2017-02-01T05:51:59.544Z,-1.07
2017-02-01T05:53:09.348Z,-1.07
2017-02-01T05:54:18.389Z,-1.12
2017-02-01T05:55:27.807Z,-1.19
2017-02-01T05:56:36.846Z,-1.23
2017-02-01T05:57:46.677Z,-1.31
2017-02-01T05:58:56.126Z,-1.27
2017-02-01T06:00:05.929Z,-1.41
2017-02-01T06:01:14.957Z,-1.45
2017-02-01T06:02:24.377Z,-1.37
2017-02-01T06:03:33.419Z,-1.45
2017-02-01T06:04:42.082Z,-1.49
2017-02-01T06:05:51.882Z,-1.55
2017-02-01T06:07:00.918Z,-1.55
2017-02-01T06:08:10.340Z,-1.54
2017-02-01T06:09:20.135Z,-1.49
2017-02-01T06:10:29.552Z,-1.51
2017-02-01T06:11:38.214Z,-1.43
2017-02-01T06:12:46.871Z,-1.49
2017-02-01T06:13:55.908Z,-1.54
2017-02-01T06:15:06.090Z,-1.52
2017-02-01T06:16:15.894Z,-1.45
2017-02-01T06:17:24.935Z,-1.62
2017-02-01T06:18:35.121Z,-1.66
2017-02-01T06:19:44.537Z,-1.55
2017-02-01T06:20:54.368Z,-1.58
2017-02-01T06:22:04.172Z,-1.59
2017-02-01T06:23:13.593Z,-1.59
2017-02-01T06:24:23.401Z,-1.51
2017-02-01T06:25:33.210Z,-1.64
2017-02-01T06:26:42.679Z,-1.56
2017-02-01T06:27:52.488Z,-1.55
2017-02-01T06:29:01.902Z,-1.59
2017-02-01T06:30:11.321Z,-1.58
2017-02-01T06:31:19.972Z,-1.51
2017-02-01T06:32:29.006Z,-1.46
2017-02-01T06:33:38.046Z,-1.4
2017-02-01T06:34:47.877Z,-1.43
2017-02-01T06:35:57.327Z,-1.31
2017-02-01T06:37:06.405Z,-1.43
2017-02-01T06:38:15.828Z,-1.34
2017-02-01T06:39:25.248Z,-1.37
2017-02-01T06:40:33.903Z,-1.31
2017-02-01T06:41:43.335Z,-1.33
2017-02-01T06:42:53.151Z,-1.23
2017-02-01T06:44:02.571Z,-1.28
2017-02-01T06:45:11.613Z,-1.19
2017-02-01T06:46:21.030Z,-1.23
2017-02-01T06:47:30.062Z,-1.13
2017-02-01T06:48:39.098Z,-1.02
2017-02-01T06:49:47.752Z,-1.02
2017-02-01T06:50:57.175Z,-1.22
2017-02-01T06:52:06.601Z,-1.17
2017-02-01T06:53:15.640Z,-1.1
2017-02-01T06:54:25.059Z,-1.27
2017-02-01T06:55:34.856Z,-1.2
2017-02-01T06:56:44.276Z,-1.19
2017-02-01T06:57:54.084Z,-1.15
2017-02-01T06:59:03.124Z,-1.05
2017-02-01T07:00:12.932Z,-1.17
2017-02-01T07:01:21.590Z,-1.01
2017-02-01T07:02:31.771Z,-1.07
2017-02-01T07:03:41.572Z,-1.12
2017-02-01T07:04:50.997Z,-1.15
2017-02-01T07:06:00.792Z,-1.15
2017-02-01T07:07:10.209Z,-1.13
2017-02-01T07:08:19.628Z,-1.09
2017-02-01T07:09:29.046Z,-1.12
2017-02-01T07:10:38.092Z,-1.02
2017-02-01T07:11:47.140Z,-1.02
2017-02-01T07:12:56.179Z,-1.05
2017-02-01T07:14:05.985Z,-1.02
2017-02-01T07:15:15.781Z,-0.95
2017-02-01T07:16:25.580Z,-0.99
2017-02-01T07:17:35.001Z,-1.04
2017-02-01T07:18:44.801Z,-1.07
2017-02-01T07:19:54.985Z,-1.05
2017-02-01T07:21:04.026Z,-0.97
2017-02-01T07:22:13.450Z,-0.97
2017-02-01T07:23:23.673Z,-1.02
2017-02-01T07:24:33.481Z,-0.99
2017-02-01T07:25:43.287Z,-0.89
2017-02-01T07:26:52.319Z,-0.91
2017-02-01T07:28:01.744Z,-0.97
2017-02-01T07:29:11.162Z,-0.91
2017-02-01T07:30:20.587Z,-0.83
2017-02-01T07:31:30.011Z,-0.89
2017-02-01T07:32:38.666Z,-0.83
2017-02-01T07:33:48.091Z,-0.78
2017-02-01T07:34:56.742Z,-0.8
2017-02-01T07:36:06.167Z,-0.79
2017-02-01T07:37:15.227Z,-0.73
2017-02-01T07:38:25.028Z,-0.73
2017-02-01T07:39:34.830Z,-0.72
2017-02-01T07:40:44.627Z,-0.67
2017-02-01T07:41:54.436Z,-0.75
2017-02-01T07:43:04.237Z,-0.61
2017-02-01T07:44:12.889Z,-0.54
2017-02-01T07:45:22.690Z,-0.55
2017-02-01T07:46:32.117Z,-0.6
2017-02-01T07:47:41.972Z,-0.52
2017-02-01T07:48:52.170Z,-0.52
2017-02-01T07:50:01.590Z,-0.54
2017-02-01T07:51:11.394Z,-0.64
2017-02-01T07:52:20.814Z,-0.62
2017-02-01T07:53:30.237Z,-0.6
2017-02-01T07:54:40.420Z,-0.47
2017-02-01T07:55:50.634Z,-0.49
2017-02-01T07:57:00.048Z,-0.52
2017-02-01T07:58:08.701Z,-0.51
2017-02-01T07:59:17.737Z,-0.49
2017-02-01T08:00:26.775Z,-0.57
2017-02-01T08:01:36.199Z,-0.51
2017-02-01T08:02:45.998Z,-0.39
2017-02-01T08:03:54.652Z,-0.28
2017-02-01T08:05:04.836Z,-0.28
2017-02-01T08:06:14.266Z,-0.28
2017-02-01T08:07:23.685Z,-0.05
2017-02-01T08:08:33.496Z,0
2017-02-01T08:09:42.534Z,0.07
2017-02-01T08:10:52.333Z,0.14
2017-02-01T08:12:01.757Z,0.18
2017-02-01T08:13:11.561Z,0.07
2017-02-01T08:14:20.602Z,0.15
2017-02-01T08:15:30.784Z,0.07
2017-02-01T08:16:39.821Z,0.17
2017-02-01T08:17:49.639Z,0.15
2017-02-01T08:18:59.067Z,0.31
2017-02-01T08:20:09.256Z,0.23
2017-02-01T08:21:17.908Z,0.24
2017-02-01T08:22:27.710Z,0.36
2017-02-01T08:23:37.515Z,0.42
2017-02-01T08:24:46.546Z,0.49
2017-02-01T08:25:55.585Z,0.49
2017-02-01T08:27:04.621Z,0.58
2017-02-01T08:28:14.091Z,0.6
2017-02-01T08:29:23.521Z,0.65
2017-02-01T08:30:32.554Z,0.53
2017-02-01T08:31:41.980Z,0.58
2017-02-01T08:32:51.782Z,0.75
2017-02-01T08:34:00.821Z,0.75
2017-02-01T08:35:10.243Z,0.8
2017-02-01T08:36:20.043Z,0.72
2017-02-01T08:37:28.692Z,0.87
2017-02-01T08:38:38.117Z,0.78
2017-02-01T08:39:47.970Z,0.72
2017-02-01T08:40:57.788Z,0.84
2017-02-01T08:42:07.204Z,0.94
2017-02-01T08:43:17.391Z,0.84
2017-02-01T08:44:26.431Z,0.83
2017-02-01T08:45:36.236Z,0.96
2017-02-01T08:46:46.036Z,0.98
2017-02-01T08:47:56.228Z,1
2017-02-01T08:49:06.032Z,1.05
2017-02-01T08:50:15.070Z,1.08
2017-02-01T08:51:23.731Z,1.15
2017-02-01T08:52:33.152Z,1.16
2017-02-01T08:53:42.195Z,1.22
2017-02-01T08:54:51.230Z,1.16
2017-02-01T08:56:00.658Z,1.24
2017-02-01T08:57:10.092Z,1.3
2017-02-01T08:58:19.890Z,1.26
2017-02-01T08:59:30.074Z,1.26
2017-02-01T09:00:39.534Z,1.33
2017-02-01T09:01:48.577Z,1.24
2017-02-01T09:02:57.997Z,1.47
2017-02-01T09:04:08.214Z,1.44
2017-02-01T09:05:17.637Z,1.48
2017-02-01T09:06:27.438Z,1.52
2017-02-01T09:07:37.239Z,1.6
2017-02-01T09:08:47.046Z,1.55
2017-02-01T09:09:56.850Z,1.63
2017-02-01T09:11:06.275Z,1.7
2017-02-01T09:12:16.466Z,1.77
2017-02-01T09:13:25.119Z,1.73
2017-02-01T09:14:34.164Z,1.76
2017-02-01T09:15:43.963Z,1.79
2017-02-01T09:16:53.378Z,1.79
2017-02-01T09:18:02.809Z,1.76
2017-02-01T09:19:12.998Z,1.91
2017-02-01T09:20:23.185Z,1.98
2017-02-01T09:21:32.603Z,1.86
2017-02-01T09:22:42.026Z,1.93
2017-02-01T09:23:51.493Z,2.03
2017-02-01T09:25:01.679Z,2.06
2017-02-01T09:26:10.384Z,2.06
2017-02-01T09:27:20.197Z,2.03
2017-02-01T09:28:30.382Z,2.14
2017-02-01T09:29:39.421Z,2.21
2017-02-01T09:30:48.457Z,2.25
2017-02-01T09:31:57.877Z,2.18
2017-02-01T09:33:07.682Z,2.23
2017-02-01T09:34:17.482Z,2.24
2017-02-01T09:35:26.520Z,2.28
2017-02-01T09:36:35.943Z,2.28
2017-02-01T09:37:45.408Z,2.36
2017-02-01T09:38:54.449Z,2.25
2017-02-01T09:40:04.639Z,2.36
2017-02-01T09:41:14.063Z,2.48
2017-02-01T09:42:22.718Z,2.45
2017-02-01T09:43:32.522Z,2.48
2017-02-01T09:44:41.940Z,2.49
2017-02-01T09:45:50.981Z,2.49
2017-02-01T09:47:00.424Z,2.54
2017-02-01T09:48:10.226Z,2.54
2017-02-01T09:49:19.704Z,2.49
2017-02-01T09:50:29.890Z,2.49
2017-02-01T09:51:38.551Z,2.64
2017-02-01T09:52:47.988Z,2.66
2017-02-01T09:53:57.795Z,2.69
2017-02-01T09:55:07.979Z,2.74
2017-02-01T09:56:17.783Z,2.77
2017-02-01T09:57:27.603Z,2.85
2017-02-01T09:58:37.408Z,2.84
2017-02-01T09:59:46.065Z,2.81
2017-02-01T10:00:55.487Z,2.87
2017-02-01T10:02:04.522Z,2.84
2017-02-01T10:03:13.177Z,2.84
2017-02-01T10:04:22.230Z,3.02
2017-02-01T10:05:31.662Z,2.99
2017-02-01T10:06:40.769Z,2.97
2017-02-01T10:07:50.190Z,3.08
2017-02-01T10:08:58.841Z,3.08
2017-02-01T10:10:08.643Z,3.23
2017-02-01T10:11:17.697Z,3.29
2017-02-01T10:12:26.739Z,3.43
2017-02-01T10:13:35.411Z,3.57
2017-02-01T10:14:44.454Z,3.91
2017-02-01T10:15:53.883Z,4.04
2017-02-01T10:17:03.691Z,4.12
2017-02-01T10:18:13.880Z,4.4
2017-02-01T10:19:23.303Z,4.59
2017-02-01T10:20:32.716Z,4.77
2017-02-01T10:21:42.149Z,4.82
2017-02-01T10:22:51.961Z,4.99
2017-02-01T10:24:01.815Z,5.12
2017-02-01T10:25:11.288Z,5.13
2017-02-01T10:26:20.706Z,5.43
2017-02-01T10:27:29.745Z,5.51
2017-02-01T10:28:39.173Z,5.68
2017-02-01T10:29:49.032Z,5.61
2017-02-01T10:30:58.075Z,5.74
2017-02-01T10:32:07.882Z,5.9
2017-02-01T10:33:17.305Z,5.86
2017-02-01T10:34:26.355Z,6.01
2017-02-01T10:35:36.172Z,6.06
2017-02-01T10:36:45.214Z,6.08
2017-02-01T10:37:54.259Z,6.15
2017-02-01T10:39:03.302Z,6.25
2017-02-01T10:40:12.722Z,6.28
2017-02-01T10:41:21.818Z,6.46
2017-02-01T10:42:30.867Z,6.7
2017-02-01T10:43:39.911Z,6.73
2017-02-01T10:44:49.342Z,6.79
2017-02-01T10:45:58.393Z,6.46
2017-02-01T10:47:08.206Z,6.17
2017-02-01T10:48:17.626Z,5.81
2017-02-01T10:49:27.051Z,5.63
2017-02-01T10:50:36.476Z,5.48
2017-02-01T10:51:45.913Z,5.36
2017-02-01T10:52:55.005Z,5.13
2017-02-01T10:54:04.432Z,5
2017-02-01T10:55:13.858Z,4.82
2017-02-01T10:56:23.676Z,4.7
2017-02-01T10:57:33.104Z,4.72
2017-02-01T10:58:41.808Z,4.47
2017-02-01T10:59:50.885Z,4.42
2017-02-01T11:01:00.697Z,4.33
2017-02-01T11:02:10.130Z,4.24
2017-02-01T11:03:20.318Z,4.26
2017-02-01T11:04:29.354Z,4.23
2017-02-01T11:05:38.780Z,4.26
2017-02-01T11:06:48.205Z,4.15
2017-02-01T11:07:58.019Z,4.14
2017-02-01T11:09:07.072Z,4.18
2017-02-01T11:10:15.737Z,4.18
2017-02-01T11:11:24.779Z,4.24
2017-02-01T11:12:33.824Z,4.23
2017-02-01T11:13:43.639Z,4.29
2017-02-01T11:14:53.833Z,4.22
2017-02-01T11:16:03.690Z,4.24
2017-02-01T11:17:13.117Z,4.36
2017-02-01T11:18:22.171Z,4.36
2017-02-01T11:19:31.213Z,4.37
2017-02-01T11:20:40.636Z,4.4
2017-02-01T11:21:49.300Z,4.48
2017-02-01T11:22:58.341Z,4.47
2017-02-01T11:24:07.005Z,4.48
2017-02-01T11:25:16.045Z,4.47
2017-02-01T11:26:25.507Z,4.51
2017-02-01T11:27:34.928Z,4.45
2017-02-01T11:28:44.356Z,4.51
2017-02-01T11:29:53.777Z,4.54
2017-02-01T11:31:04.350Z,4.62
2017-02-01T11:32:14.162Z,4.55
2017-02-01T11:33:23.201Z,4.67
2017-02-01T11:34:32.633Z,4.66
2017-02-01T11:35:41.678Z,4.65
2017-02-01T11:36:51.101Z,4.67
2017-02-01T11:38:00.530Z,4.86
2017-02-01T11:39:10.338Z,4.82
2017-02-01T11:40:19.768Z,4.86
2017-02-01T11:41:29.193Z,4.92
2017-02-01T11:42:39.388Z,4.88
2017-02-01T11:43:48.809Z,4.92
2017-02-01T11:44:58.695Z,5.06
2017-02-01T11:46:08.116Z,5.03
2017-02-01T11:47:17.157Z,5.1
2017-02-01T11:48:26.583Z,5.1
2017-02-01T11:49:36.424Z,5.1
2017-02-01T11:50:45.847Z,5.17
2017-02-01T11:51:54.899Z,5.09
2017-02-01T11:53:04.319Z,5.13
2017-02-01T11:54:14.788Z,5.12
2017-02-01T11:55:24.036Z,5.02
2017-02-01T11:56:33.466Z,4.92
2017-02-01T11:57:43.270Z,4.89
2017-02-01T11:58:52.695Z,4.82
2017-02-01T12:00:02.127Z,4.82
2017-02-01T12:01:11.552Z,4.82
2017-02-01T12:02:20.981Z,4.72
2017-02-01T12:03:30.404Z,4.63
2017-02-01T12:04:39.443Z,4.51
2017-02-01T12:05:48.104Z,4.48
2017-02-01T12:06:57.531Z,4.48
2017-02-01T12:08:06.585Z,4.62
2017-02-01T12:09:16.393Z,4.66
2017-02-01T12:10:25.441Z,4.7
2017-02-01T12:11:34.103Z,4.78
2017-02-01T12:12:43.148Z,4.82
2017-02-01T12:13:52.954Z,4.96
2017-02-01T12:15:02.770Z,4.99
2017-02-01T12:16:12.194Z,5
2017-02-01T12:17:22.000Z,5.12
2017-02-01T12:18:31.055Z,5.04
2017-02-01T12:19:40.482Z,5.07
2017-02-01T12:20:49.523Z,5.04
2017-02-01T12:21:58.987Z,5.2
2017-02-01T12:23:08.028Z,5.07
2017-02-01T12:24:17.836Z,5.21
2017-02-01T12:25:27.258Z,5.17
2017-02-01T12:26:36.687Z,5.17
2017-02-01T12:27:46.112Z,5.1
2017-02-01T12:28:55.920Z,5.07
2017-02-01T12:30:06.143Z,5.13
2017-02-01T12:31:15.180Z,5.06
2017-02-01T12:32:24.227Z,5.2
2017-02-01T12:33:33.271Z,5.18
2017-02-01T12:34:42.314Z,5.12
2017-02-01T12:35:51.361Z,5.02
2017-02-01T12:37:01.165Z,4.99
2017-02-01T12:38:10.202Z,5
2017-02-01T12:39:18.859Z,5.02
2017-02-01T12:40:29.048Z,4.99
2017-02-01T12:41:38.470Z,5.04
2017-02-01T12:42:47.512Z,5.12
2017-02-01T12:43:56.973Z,5.1
2017-02-01T12:45:07.176Z,5.06
2017-02-01T12:46:17.023Z,5.13
2017-02-01T12:47:25.679Z,5.15
2017-02-01T12:48:35.113Z,5.21
2017-02-01T12:49:44.921Z,5.33
2017-02-01T12:50:54.444Z,5.38
2017-02-01T12:52:03.987Z,5.3
2017-02-01T12:53:12.643Z,5.42
2017-02-01T12:54:22.074Z,5.43
2017-02-01T12:55:31.502Z,5.48
2017-02-01T12:56:40.161Z,5.45
2017-02-01T12:57:49.587Z,5.45
2017-02-01T12:58:58.638Z,5.4
2017-02-01T13:00:08.070Z,5.43
2017-02-01T13:01:17.502Z,5.45
2017-02-01T13:02:26.925Z,5.51
2017-02-01T13:03:35.585Z,5.53
2017-02-01T13:04:45.001Z,5.57
2017-02-01T13:05:54.823Z,5.54
2017-02-01T13:07:03.864Z,5.54
2017-02-01T13:08:13.662Z,5.54
2017-02-01T13:09:23.085Z,5.56
2017-02-01T13:10:32.884Z,5.51
2017-02-01T13:11:43.069Z,5.58
2017-02-01T13:12:52.103Z,5.43
2017-02-01T13:14:01.907Z,5.38
2017-02-01T13:15:10.945Z,5.39
2017-02-01T13:16:21.127Z,5.35
2017-02-01T13:17:30.549Z,5.39
2017-02-01T13:18:39.969Z,5.42
2017-02-01T13:19:50.164Z,5.38
2017-02-01T13:20:59.204Z,5.33
2017-02-01T13:22:08.625Z,5.4
2017-02-01T13:23:18.039Z,5.4
2017-02-01T13:24:27.075Z,5.49
2017-02-01T13:25:37.262Z,5.45
2017-02-01T13:26:46.299Z,5.49
2017-02-01T13:27:55.330Z,5.56
2017-02-01T13:29:04.754Z,5.48
2017-02-01T13:30:14.179Z,5.51
2017-02-01T13:31:23.214Z,5.61
2017-02-01T13:32:32.253Z,5.48
2017-02-01T13:33:41.672Z,5.57
2017-02-01T13:34:50.329Z,5.65
2017-02-01T13:35:59.372Z,5.68
2017-02-01T13:37:08.832Z,5.6
2017-02-01T13:38:17.872Z,5.74
2017-02-01T13:39:26.932Z,5.76
2017-02-01T13:40:37.121Z,5.83
2017-02-01T13:41:46.548Z,5.74
2017-02-01T13:42:56.732Z,5.75
2017-02-01T13:44:05.782Z,5.74
2017-02-01T13:45:14.441Z,5.75
2017-02-01T13:46:23.097Z,5.71
2017-02-01T13:47:32.514Z,5.78
2017-02-01T13:48:41.945Z,5.76
2017-02-01T13:49:52.133Z,5.64
2017-02-01T13:51:01.172Z,5.67
2017-02-01T13:52:10.601Z,5.64
2017-02-01T13:53:20.017Z,5.68
2017-02-01T13:54:29.818Z,5.67
2017-02-01T13:55:38.470Z,5.61
2017-02-01T13:56:47.891Z,5.63
2017-02-01T13:57:57.362Z,5.71
2017-02-01T13:59:07.164Z,5.61
2017-02-01T14:00:16.584Z,5.58
2017-02-01T14:01:26.001Z,5.58
2017-02-01T14:02:35.419Z,5.6
2017-02-01T14:03:44.843Z,5.58
2017-02-01T14:04:53.884Z,5.6
2017-02-01T14:06:03.330Z,5.48
2017-02-01T14:07:13.134Z,5.63
2017-02-01T14:08:22.945Z,5.48
2017-02-01T14:09:32.373Z,5.49
2017-02-01T14:10:42.178Z,5.51
2017-02-01T14:11:51.983Z,5.49
2017-02-01T14:13:01.024Z,5.48
2017-02-01T14:14:10.448Z,5.45
2017-02-01T14:15:19.487Z,5.42
2017-02-01T14:16:28.935Z,5.39
2017-02-01T14:17:37.974Z,5.39
2017-02-01T14:18:48.159Z,5.4
2017-02-01T14:19:57.577Z,5.35
2017-02-01T14:21:06.994Z,5.38
2017-02-01T14:22:17.182Z,5.43
2017-02-01T14:23:26.985Z,5.38
2017-02-01T14:24:36.023Z,5.4
2017-02-01T14:25:46.210Z,5.4
2017-02-01T14:26:55.630Z,5.46
2017-02-01T14:28:04.284Z,5.43
2017-02-01T14:29:13.699Z,5.51
2017-02-01T14:30:23.505Z,5.39
2017-02-01T14:31:32.931Z,5.36
2017-02-01T14:32:42.349Z,5.48
2017-02-01T14:33:51.771Z,5.42
2017-02-01T14:35:01.194Z,5.4
2017-02-01T14:36:09.844Z,5.43
2017-02-01T14:37:18.885Z,5.38
2017-02-01T14:38:27.539Z,5.36
2017-02-01T14:39:37.344Z,5.39
2017-02-01T14:40:46.766Z,5.39
2017-02-01T14:41:55.802Z,5.43
2017-02-01T14:43:05.612Z,5.45
2017-02-01T14:44:15.086Z,5.45
2017-02-01T14:45:24.505Z,5.53
2017-02-01T14:46:33.927Z,5.54
2017-02-01T14:47:42.966Z,5.71
2017-02-01T14:48:52.002Z,5.57
2017-02-01T14:50:02.188Z,5.81
2017-02-01T14:51:11.620Z,5.78
2017-02-01T14:52:20.666Z,5.89
2017-02-01T14:53:30.474Z,5.86
2017-02-01T14:54:39.893Z,5.86
2017-02-01T14:55:49.320Z,5.9
2017-02-01T14:56:58.739Z,6
2017-02-01T14:58:07.784Z,6.06
2017-02-01T14:59:17.208Z,6
2017-02-01T15:00:26.630Z,6.01
2017-02-01T15:01:35.281Z,5.97
2017-02-01T15:02:45.092Z,5.99
2017-02-01T15:03:54.899Z,6.01
2017-02-01T15:05:04.702Z,5.94
2017-02-01T15:06:14.128Z,5.9
2017-02-01T15:07:23.548Z,5.85
2017-02-01T15:08:32.971Z,5.91
2017-02-01T15:09:42.388Z,5.86
2017-02-01T15:10:51.816Z,5.93
2017-02-01T15:12:00.850Z,5.9
2017-02-01T15:13:10.265Z,5.89
2017-02-01T15:14:19.304Z,5.94
2017-02-01T15:15:28.718Z,5.94
2017-02-01T15:16:37.371Z,5.83
2017-02-01T15:17:47.181Z,5.85